Flight Track Log - Related Links

Times and Time Zones

All times are in EDT time to prevent confusion due to time zone crossing. See the N789EX flight status page for this flight to view local times or setup timezone preferences in your user account.


Time Position Orientation Groundspeed Altitude Reporting Facility
EDT Latitude Longitude Course Direction KTS MPH feet Rate Location/Type
Tue 12:49:37 PM 47.5051 -122.2800 148° Southeast 174 200 1,700  Level FlightAware ADS-B
Tue 12:49:52 PM 47.4943 -122.2700 147° Southeast 184 212 2,200 1,600 Climbing FlightAware ADS-B
Tue 12:50:07 PM 47.4825 -122.2590 146° Southeast 213 245 2,500 1,448 Climbing FlightAware ADS-B
Tue 12:50:21 PM 47.4703 -122.2470 146° Southeast 233 268 2,900 2,077 Climbing FlightAware ADS-B
Tue 12:50:33 PM 47.4594 -122.2360 145° Southeast 243 280 3,400 3,111 Climbing FlightAware ADS-B
Tue 12:50:48 PM 47.4452 -122.2210 145° Southeast 250 288 4,300 3,429 Climbing FlightAware ADS-B
Tue 12:50:54 PM 47.4395 -122.2150 146° Southeast 254 292 4,600 2,400 Climbing FlightAware ADS-B
Tue 12:50:58 PM 47.4357 -122.2120 149° Southeast 257 296 4,700 2,000 Climbing FlightAware ADS-B
Tue 12:51:03 PM 47.4306 -122.2080 153° Southeast 259 298 4,900 2,667 Climbing FlightAware ADS-B
Tue 12:51:07 PM 47.4261 -122.2050 155° Southeast 261 300 5,100 3,429 Climbing FlightAware ADS-B
Tue 12:51:10 PM 47.4227 -122.2020 157° South 262 302 5,300 3,000 Climbing FlightAware ADS-B
Tue 12:51:13 PM 47.4193 -122.2010 160° South 263 303 5,400 2,571 Climbing FlightAware ADS-B
Tue 12:51:17 PM 47.4149 -122.1980 163° South 264 304 5,600 3,000 Climbing FlightAware ADS-B
Tue 12:51:21 PM 47.4106 -122.1970 166° South 265 305 5,800 3,000 Climbing FlightAware ADS-B
Tue 12:51:25 PM 47.4053 -122.1950 170° South 266 306 6,000 3,158 Climbing FlightAware ADS-B
Tue 12:51:40 PM 47.3865 -122.1900 169° South 272 313 6,800 3,200 Climbing FlightAware ADS-B
Tue 12:51:55 PM 47.3677 -122.1850 169° South 277 319 7,600 2,903 Climbing FlightAware ADS-B
Tue 12:52:11 PM 47.3485 -122.1800 170° South 280 322 8,300 2,308 Climbing FlightAware ADS-B
Tue 12:52:21 PM 47.3349 -122.1760 170° South 283 326 8,600 1,385 Climbing FlightAware ADS-B
Tue 12:52:37 PM 47.3141 -122.1700 170° South 287 330 8,900 774 Climbing FlightAware ADS-B
Tue 12:52:52 PM 47.2945 -122.1650 170° South 288 331 9,000 600 Climbing FlightAware ADS-B
Tue 12:53:07 PM 47.2748 -122.1600 170° South 289 333 9,200 1,800 Climbing FlightAware ADS-B
Tue 12:53:22 PM 47.2549 -122.1550 170° South 288 331 9,900 2,533 Climbing FlightAware ADS-B
Tue 12:53:52 PM 47.2145 -122.1440 170° South 308 354 11,100 1,967 Climbing FlightAware ADS-B
Tue 12:54:23 PM 47.1700 -122.1320 170° South 340 391 11,900 1,500 Climbing FlightAware ADS-B
Tue 12:54:40 PM 47.1425 -122.1252 170° South 363 418 12,300 1,200 Climbing FlightAware ADS-B (KPFC)
Tue 12:54:53 PM 47.1206 -122.1190 170° South 376 433 12,500 1,256 Climbing FlightAware ADS-B
Tue 12:55:23 PM 47.0666 -122.1050 170° South 404 465 13,200 1,395 Climbing FlightAware ADS-B
Tue 12:55:36 PM 47.0427 -122.0986 170° South 415 478 13,500 2,200 Climbing FlightAware ADS-B (CYVR)
Tue 12:55:53 PM 47.0098 -122.0900 170° South 419 482 14,300 2,727 Climbing FlightAware ADS-B
Tue 12:56:20 PM 46.9573 -122.0758 169° South 423 487 15,500 2,600 Climbing FlightAware ADS-B (KPFC)
Tue 12:56:23 PM 46.9519 -122.0740 169° South 423 487 15,600 3,750 Climbing FlightAware ADS-B
Tue 12:56:44 PM 46.9123 -122.0640 170° South 412 474 17,000 4,065 Climbing FlightAware ADS-B
Tue 12:56:54 PM 46.8942 -122.0580 165° South 407 468 17,700 4,000 Climbing FlightAware ADS-B
Tue 12:57:02 PM 46.8799 -122.0510 160° South 406 467 18,200 3,692 Climbing FlightAware ADS-B
Tue 12:57:07 PM 46.8718 -122.0460 155° Southeast 404 465 18,500 3,750 Climbing FlightAware ADS-B
Tue 12:57:18 PM 46.8556 -122.0325 148° Southeast 402 463 19,200 2,600 Climbing FlightAware ADS-B (CYVR)
Tue 12:57:37 PM 46.8239 -122.0020 146° Southeast 398 458 19,800 1,600 Climbing FlightAware ADS-B
Tue 12:57:48 PM 46.8397 -122.0175 146° Southeast 391 450 20,000 400 Climbing FlightAware ADS-B
Tue 12:58:07 PM 46.7787 -121.9580 146° Southeast 390 449 20,000  Level FlightAware ADS-B
Tue 12:58:21 PM 46.7588 -121.9383 146° Southeast 396 456 20,000 194 Level FlightAware ADS-B
Tue 12:58:38 PM 46.7329 -121.9130 146° Southeast 400 460 20,100 581 Climbing FlightAware ADS-B
Tue 12:58:52 PM 46.7111 -121.8910 143° Southeast 406 467 20,300 1,200 Climbing FlightAware ADS-B
Tue 12:58:53 PM 46.7096 -121.8893 142° Southeast 408 470 20,400 2,000 Climbing FlightAware ADS-B (KPFC)
Tue 12:59:01 PM 46.6973 -121.8740 137° Southeast 415 478 20,600 1,125 Climbing FlightAware ADS-B
Tue 12:59:09 PM 46.6869 -121.8580 132° Southeast 421 484 20,700 706 Climbing FlightAware ADS-B
Tue 12:59:18 PM 46.6757 -121.8380 127° Southeast 430 495 20,800 1,250 Climbing FlightAware ADS-B
Tue 12:59:33 PM 46.6599 -121.8000 117° Southeast 443 510 21,200 1,565 Climbing FlightAware ADS-B
Tue 12:59:41 PM 46.6534 -121.7796 114° Southeast 448 516 21,400 2,000 Climbing FlightAware ADS-B (KPFC)
Tue 01:00:18 PM 46.6208 -121.6760 115° Southeast 451 519 22,700 2,341 Climbing FlightAware ADS-B
Tue 01:00:22 PM 46.6173 -121.6649 114° Southeast 438 504 23,000 4,452 Climbing FlightAware ADS-B (KPFC)
Tue 01:00:49 PM 46.5956 -121.5950 114° Southeast 423 487 25,000 4,114 Climbing FlightAware ADS-B
Tue 01:00:57 PM 46.6218 -121.6791 114° Southeast 435 501 25,400 2,600 Climbing FlightAware ADS-B
Tue 01:01:19 PM 46.5713 -121.5180 115° Southeast 419 482 26,300 1,811 Climbing FlightAware ADS-B
Tue 01:01:50 PM 46.5461 -121.4390 115° Southeast 429 494 27,000 1,364 Climbing FlightAware ADS-B
Tue 01:02:25 PM 46.5165 -121.3450 115° Southeast 435 501 27,800 1,433 Climbing FlightAware ADS-B
Tue 01:02:57 PM 46.4897 -121.2590 114° Southeast 442 509 28,600 1,404 Climbing FlightAware ADS-B
Tue 01:03:12 PM 46.4776 -121.2209 114° Southeast 443 510 28,900 774 Climbing FlightAware ADS-B (KPFC)
Tue 01:03:28 PM 46.4633 -121.1760 115° Southeast 454 522 29,000 1,077 Climbing FlightAware ADS-B
Tue 01:03:51 PM 46.4431 -121.1132 114° Southeast 451 519 29,600 1,273 Climbing FlightAware ADS-B (KPFC)
Tue 01:04:01 PM 46.4338 -121.0840 115° Southeast 455 524 29,700 563 Climbing FlightAware ADS-B
Tue 01:04:23 PM 46.4139 -121.0224 115° Southeast 465 535 29,900 750 Climbing FlightAware ADS-B (KPFC)
Tue 01:04:33 PM 46.4048 -120.9950 115° Southeast 469 540 30,100 667 Climbing FlightAware ADS-B
Tue 01:05:08 PM 46.3850 -120.9332 115° Southeast 487 560 30,400 592 Climbing FlightAware ADS-B
Tue 01:05:44 PM 46.3385 -120.7876 115° Southeast 496 571 30,800 579 Climbing FlightAware ADS-B
Tue 01:07:02 PM 46.2625 -120.5532 114° Southeast 504 580 31,500 625 Climbing FlightAware ADS-B
Tue 01:07:20 PM 46.2424 -120.4921 114° Southeast 503 579 31,800 517 Climbing FlightAware ADS-B (KPFC)
Tue 01:08:00 PM 46.2035 -120.3724 115° Southeast 507 583 32,000 493 Climbing FlightAware ADS-B (KPFC)
Tue 01:08:33 PM 46.1706 -120.2726 116° Southeast 507 583 32,400 711 Climbing FlightAware ADS-B
Tue 01:09:16 PM 46.1273 -120.1413 115° Southeast 501 577 32,900 940 Climbing FlightAware ADS-B (KPFC)
Tue 01:09:56 PM 46.0867 -120.0194 116° Southeast 494 568 33,700 1,029 Climbing FlightAware ADS-B (KPFC)
Tue 01:10:26 PM 46.0573 -119.9306 116° Southeast 494 568 34,100 815 Climbing FlightAware ADS-B (KPFC)
Tue 01:11:17 PM 46.0242 -119.8324 116° Southeast 494 568 34,800 651 Climbing FlightAware ADS-B
Tue 01:11:49 PM 45.9800 -119.7001 116° Southeast 493 567 35,000 169 Climbing FlightAware ADS-B
Tue 01:12:28 PM 45.9434 -119.5915 116° Southeast 492 566 35,000  Level FlightAware ADS-B
Tue 01:13:01 PM 45.9043 -119.4769 116° Southeast 499 574 35,000  Level FlightAware ADS-B
Tue 01:13:35 PM 45.8714 -119.3804 116° Southeast 502 578 35,000  Level FlightAware ADS-B
Tue 01:14:32 PM 45.8142 -119.2192 116° Southeast 496 571 35,000  Level Salt Lake Center
Tue 01:15:33 PM 45.7533 -119.0400 116° Southeast 499 574 35,000  Level Salt Lake Center
Tue 01:16:35 PM 45.6928 -118.8622 116° Southeast 499 574 35,000  Level Salt Lake Center
Tue 01:17:36 PM 45.6306 -118.6858 117° Southeast 497 572 35,000  Level Salt Lake Center
Tue 01:18:38 PM 45.5697 -118.5114 116° Southeast 495 570 35,000  Level Salt Lake Center
Tue 01:19:39 PM 45.5069 -118.3364 117° Southeast 495 570 35,000  Level Salt Lake Center
Tue 01:20:41 PM 45.4467 -118.1628 116° Southeast 494 568 35,000  Level Salt Lake Center
Tue 01:21:42 PM 45.3844 -117.9928 117° Southeast 486 559 35,000  Level Salt Lake Center
Tue 01:22:44 PM 45.3225 -117.8203 117° Southeast 487 560 35,000  Level Salt Lake Center
Tue 01:23:45 PM 45.2522 -117.6256 117° Southeast 487 560 35,000  Level Salt Lake Center
Tue 01:24:47 PM 45.1908 -117.4594 118° Southeast 482 555 35,000  Level Salt Lake Center
Tue 01:25:49 PM 45.1297 -117.2914 117° Southeast 481 554 35,000  Level Salt Lake Center
Tue 01:26:50 PM 45.0678 -117.1253 118° Southeast 481 554 35,000  Level Salt Lake Center
Tue 01:27:52 PM 44.9944 -116.9286 118° Southeast 477 549 35,000  Level Salt Lake Center
Tue 01:28:54 PM 44.9319 -116.7625 118° Southeast 476 548 35,000  Level Salt Lake Center
Tue 01:29:55 PM 44.8703 -116.5953 117° Southeast 480 552 35,000  Level Salt Lake Center
Tue 01:30:57 PM 44.8072 -116.4292 118° Southeast 480 552 35,000  Level Salt Lake Center
Tue 01:31:59 PM 44.7439 -116.2619 118° Southeast 480 552 35,000  Level Salt Lake Center
Tue 01:33:00 PM 44.6789 -116.0942 119° Southeast 481 554 35,000  Level Salt Lake Center
Tue 01:34:02 PM 44.6142 -115.9239 118° Southeast 482 555 35,000  Level Salt Lake Center
Tue 01:35:03 PM 44.5489 -115.7553 118° Southeast 486 559 35,000  Level Salt Lake Center
Tue 01:36:05 PM 44.4833 -115.5872 119° Southeast 488 562 35,000  Level Salt Lake Center
Tue 01:37:07 PM 44.4169 -115.4222 119° Southeast 488 562 35,000  Level Salt Lake Center
Tue 01:38:09 PM 44.3408 -115.2231 118° Southeast 487 560 35,000  Level Salt Lake Center
Tue 01:39:10 PM 44.2764 -115.0592 119° Southeast 486 559 35,000  Level Salt Lake Center
Tue 01:40:12 PM 44.2092 -114.8961 120° Southeast 486 559 35,000  Level Salt Lake Center
Tue 01:41:14 PM 44.1428 -114.7325 119° Southeast 486 559 35,000  Level Salt Lake Center
Tue 01:47:07 PM 43.7410 -113.7541 119° Southeast 489 563 35,000  Level FlightAware ADS-B (KBTF)
Tue 01:47:48 PM 43.6947 -113.6435 119° Southeast 490 564 35,000  Level FlightAware ADS-B (KBTF)
Tue 01:48:40 PM 43.6346 -113.5005 119° Southeast 495 570 35,000  Level FlightAware ADS-B (KBTF)
Tue 01:49:28 PM 43.5780 -113.3668 119° Southeast 501 577 35,000  Level FlightAware ADS-B
Tue 01:50:13 PM 43.5257 -113.2434 119° Southeast 501 577 35,000  Level FlightAware ADS-B (KBTF)
Tue 01:50:54 PM 43.4770 -113.1293 121° Southeast 506 582 35,000  Level FlightAware ADS-B (KBTF)
Tue 01:51:33 PM 43.4310 -113.0217 121° Southeast 507 583 35,000  Level FlightAware ADS-B (KBTF)
Tue 01:52:08 PM 43.3890 -112.9241 121° Southeast 508 585 35,000  Level FlightAware ADS-B (KBTF)
Tue 01:52:53 PM 43.3358 -112.8006 121° Southeast 508 585 35,000  Level FlightAware ADS-B (KBTF)
Tue 01:53:32 PM 43.2891 -112.6930 121° Southeast 509 586 35,000  Level FlightAware ADS-B (KBTF)
Tue 01:54:17 PM 43.2350 -112.5684 121° Southeast 509 586 35,000  Level FlightAware ADS-B
Tue 01:54:50 PM 43.1941 -112.4747 121° Southeast 508 585 35,000  Level FlightAware ADS-B
Tue 01:55:31 PM 43.1466 -112.3661 121° Southeast 510 587 35,000  Level FlightAware ADS-B
Tue 01:56:04 PM 43.1049 -112.2713 121° Southeast 509 586 35,000  Level FlightAware ADS-B
Tue 01:57:16 PM 43.0181 -112.0747 121° Southeast 506 582 35,000  Level FlightAware ADS-B
Tue 01:57:56 PM 42.9698 -111.9658 120° Southeast 505 581 35,000  Level FlightAware ADS-B
Tue 01:58:45 PM 42.9147 -111.8392 120° Southeast 507 583 35,000  Level Salt Lake Center
Tue 01:59:47 PM 42.8450 -111.6828 121° Southeast 507 583 35,000  Level Salt Lake Center
Tue 02:00:49 PM 42.7625 -111.5042 122° Southeast 505 581 35,000  Level Salt Lake Center
Tue 02:01:51 PM 42.6958 -111.3578 122° Southeast 506 582 35,000  Level Salt Lake Center
Tue 02:02:53 PM 42.6214 -111.1922 121° Southeast 510 587 35,000  Level Salt Lake Center
Tue 02:03:55 PM 42.5294 -110.9911 122° Southeast 518 596 35,000  Level Salt Lake Center
Tue 02:04:57 PM 42.4622 -110.8464 122° Southeast 514 592 35,000  Level Salt Lake Center
Tue 02:05:59 PM 42.3778 -110.6642 122° Southeast 513 590 35,000  Level Salt Lake Center
Tue 02:11:28 PM 41.9552 -109.7682 123° Southeast 514 592 35,000  Level FlightAware ADS-B
Tue 02:12:15 PM 41.8902 -109.6328 123° Southeast 515 593 35,000  Level FlightAware ADS-B
Tue 02:15:40 PM 41.6297 -109.0960 123° Southeast 520 598 35,000  Level FlightAware ADS-B
Tue 02:16:47 PM 41.5294 -108.9156 129° Southeast 513 590 35,000  Level FlightAware ADS-B
Tue 02:17:40 PM 41.4604 -108.8028 129° Southeast 510 587 35,000  Level FlightAware ADS-B
Tue 02:18:51 PM 41.4249 -108.7450 114° Southeast 530 610 35,000  Level FlightAware ADS-B
Tue 02:24:06 PM 41.0672 -107.6407 112° Southeast 536 617 35,000  Level FlightAware ADS-B
Tue 02:25:11 PM 41.0076 -107.4490 112° Southeast 540 621 35,000  Level FlightAware ADS-B
Tue 02:26:51 PM 40.9107 -107.1395 113° Southeast 544 626 35,000 -180 Level FlightAware ADS-B (GIB / LXGB)
Tue 02:27:24 PM 40.8784 -107.0374 113° Southeast 544 626 34,600 -1,099 Descending FlightAware ADS-B (GIB / LXGB)
Tue 02:28:02 PM 40.8413 -106.9206 113° Southeast 546 628 33,700 -1,241 Descending FlightAware ADS-B (GIB / LXGB)
Tue 02:28:51 PM 40.7997 -106.7900 113° Southeast 547 629 32,800 -1,139 Descending FlightAware ADS-B (GIB / LXGB)
Tue 02:29:21 PM 40.7901 -106.7600 113° Southeast 546 628 32,200 -1,235 Descending FlightAware ADS-B
Tue 02:29:59 PM 40.7329 -106.5811 113° Southeast 545 627 31,400 -1,147 Descending FlightAware ADS-B (GIB / LXGB)
Tue 02:30:29 PM 40.6978 -106.4727 113° Southeast 544 626 30,900 -1,099 Descending FlightAware ADS-B (GIB / LXGB)
Tue 02:31:10 PM 40.6569 -106.3463 113° Southeast 544 626 30,100 -1,151 Descending FlightAware ADS-B (GIB / LXGB)
Tue 02:31:42 PM 40.6289 -106.2606 113° Southeast 546 628 29,500 -1,063 Descending FlightAware ADS-B (GIB / LXGB)
Tue 02:32:29 PM 40.5790 -106.1076 113° Southeast 542 624 28,700 -1,091 Descending FlightAware ADS-B (GIB / LXGB)
Tue 02:32:59 PM 40.5498 -106.0183 113° Southeast 528 608 28,100 -1,379 Descending FlightAware ADS-B (GIB / LXGB)
Tue 02:33:56 PM 40.4959 -105.8550 113° Southeast 521 600 26,700 -1,517 Descending FlightAware ADS-B (GIB / LXGB)
Tue 02:34:26 PM 40.4661 -105.7646 113° Southeast 515 593 25,900 -1,522 Descending FlightAware ADS-B (GIB / LXGB)
Tue 02:35:03 PM 40.4317 -105.6614 114° Southeast 505 581 25,000 -1,520 Descending FlightAware ADS-B (GIB / LXGB)
Tue 02:35:41 PM 40.3967 -105.5564 114° Southeast 498 573 24,000 -1,479 Descending FlightAware ADS-B (GIB / LXGB)
Tue 02:36:16 PM 40.3629 -105.4590 119° Southeast 496 571 23,200 -714 Descending FlightAware ADS-B (GIB / LXGB)
Tue 02:37:05 PM 40.2912 -105.3561 136° Southeast 482 555 23,000 -141 Descending FlightAware ADS-B (KOXR)
Tue 02:37:41 PM 40.2751 -105.3359 137° Southeast 486 559 23,000  Level FlightAware ADS-B (SYQ / MRPV)
Tue 02:38:11 PM 40.1827 -105.2224 137° Southeast 476 548 23,000 -686 Level FlightAware ADS-B (GIB / LXGB)
Tue 02:38:51 PM 40.1216 -105.1465 136° Southeast 448 516 22,200 -1,258 Descending FlightAware ADS-B (KOXR)
Tue 02:39:13 PM 40.0895 -105.1069 136° Southeast 425 489 21,700 -1,154 Descending FlightAware ADS-B (GIB / LXGB)
Tue 02:39:43 PM 40.0471 -105.0547 137° Southeast 398 458 21,200 -1,500 Descending FlightAware ADS-B (SYQ / MRPV)
Tue 02:40:13 PM 40.0073 -105.0061 137° Southeast 376 433 20,200 -2,149 Descending FlightAware ADS-B (SYQ / MRPV)
Tue 02:40:50 PM 39.9614 -104.9506 137° Southeast 368 423 18,800 -1,875 Descending FlightAware ADS-B (KOXR)
Tue 02:41:17 PM 39.9341 -104.9191 153° Southeast 371 427 18,200 -1,200 Descending FlightAware ADS-B (SYQ / MRPV)
Tue 02:41:30 PM 39.9059 -104.9037 166° South 366 421 18,000 -1,200 Descending FlightAware ADS-B (GIB / LXGB)
Tue 02:42:02 PM 39.8527 -104.8856 167° South 357 411 17,300 -1,619 Descending FlightAware ADS-B (GIB / LXGB)
Tue 02:42:33 PM 39.8007 -104.8727 169° South 352 405 16,300 -1,967 Descending FlightAware ADS-B (SYQ / MRPV)
Tue 02:43:03 PM 39.7533 -104.8616 171° South 352 405 15,300 -1,900 Descending FlightAware ADS-B (GIB / LXGB)
Tue 02:43:33 PM 39.7056 -104.8515 171° South 349 402 14,400 -1,742 Descending FlightAware ADS-B (GIB / LXGB)
Tue 02:44:05 PM 39.6544 -104.8402 170° South 342 394 13,500 -1,714 Descending FlightAware ADS-B (SYQ / MRPV)
Tue 02:44:36 PM 39.6078 -104.8299 171° South 338 389 12,600 -1,455 Descending FlightAware ADS-B (SYQ / MRPV)
Tue 02:45:11 PM 39.5579 -104.8191 171° South 334 384 11,900 -560 Descending FlightAware ADS-B (GIB / LXGB)
Tue 02:45:51 PM 39.5017 -104.8069 171° South 331 381 11,900  Level FlightAware ADS-B (KOXR)
Tue 02:46:21 PM 39.4466 -104.7949 170° South 335 386 11,900  Level FlightAware ADS-B (GIB / LXGB)
Tue 02:46:52 PM 39.4015 -104.7852 170° South 330 380 11,900  Level FlightAware ADS-B (SYQ / MRPV)
Tue 02:47:49 PM 39.3157 -104.7662 170° South 327 376 11,900  Level FlightAware ADS-B (KOXR)
Tue 02:48:03 PM 39.2978 -104.7623 171° South 327 376 11,900  Level FlightAware ADS-B (KOXR)
Tue 02:48:50 PM 39.2262 -104.7469 170° South 333 383 11,900  Level FlightAware ADS-B (GIB / LXGB)
Tue 02:49:22 PM 39.1774 -104.7348 167° South 332 382 11,900  Level FlightAware ADS-B (GIB / LXGB)
Tue 02:49:52 PM 39.1324 -104.7209 166° South 306 352 11,900 -160 Level FlightAware ADS-B (GIB / LXGB)
Tue 02:50:37 PM 39.0777 -104.7032 167° South 258 297 11,700 -1,000 Descending FlightAware ADS-B (KCOU)
Tue 02:51:16 PM 39.0307 -104.6889 168° South 240 276 10,500 -2,000 Descending FlightAware ADS-B (GIB / LXGB)
Tue 02:51:37 PM 39.0104 -104.6848 178° South 240 276 9,700 -1,475 Descending FlightAware ADS-B (KCOU)
Tue 02:52:17 PM 38.9653 -104.6854 180° South 207 238 9,000 -1,100 Descending FlightAware ADS-B (KCOU)
Tue 02:52:37 PM 38.9469 -104.6854 180° South 195 224 8,600 -1,050 Descending FlightAware ADS-B (KCOU)
Tue 02:52:57 PM 38.9347 -104.6854 180° South 179 206 8,300 -923 Descending FlightAware ADS-B (KCOU)
Tue 02:53:16 PM 38.9144 -104.6855 180° South 177 204 8,000 -878 Descending FlightAware ADS-B (KCOU)
Tue 02:53:38 PM 38.8968 -104.6855 179° South 172 198 7,700 -900 Descending FlightAware ADS-B (KCOU)
Tue 02:53:56 PM 38.8946 -104.6854 181° South 171 197 7,400 -923 Descending FlightAware ADS-B (KCOU)
Tue 02:54:17 PM 38.8652 -104.6856 180° South 165 190 7,100 -842 Descending FlightAware ADS-B (KCOU)
Tue 02:54:53 PM 38.8388 -104.6856 180° South 167 192 6,600 -833 Descending FlightAware ADS-B (KCOU)

Login

Don't have an account? Register now (free) for customized features, flight alerts, and more!